Hlavní strana
METAR-TAF:

METAR-TAF

Letiště :

Letecká základna Aviano

Aviano, Itálie

zeměpisná šířka: 46-02N, zeměpisná délka: 012-36E, výška: 128 m

Aktuální stav počasí

Zpráva byla vytvořena před 33 minutami, v 15:55 UTC
Jižní vítr 2 kt
Teplota 26°C
Vlhkost vzduchu 54%
Tlak 1015 hPa
Viditelnost 10 km a více
Polojasno ve výšce 5000 ft

METAR: LIPA 271555Z 18002KT 9999 SCT050 26/16 Q1015 RMK SCT VIS MIN 9999 WIND THR05 /////KT WIND THR23 /////KT A3000 BLU

Čas: 18:28 (16:28 UTC)

Předpověď počasí

Zpráva byla vytvořena před 2 hodinami a 28 minutami, v 14:00 UTC
Předpověď platná od 27 v 15 UTC do 27 v 24 UTC
Západojihozápadní vítr 3 kt
Viditelnost 10 km a více
Skoro jasno ve výšce 3000 ft
Polojasno ve výšce 6000 ft

TAF: LIPA 271400Z 2715/2724 25003KT 9999 FEW030 SCT060

Stav a předpovědi počasí z více než 4 000 letišť (zprávy METAR a TAF).

Červené a žluté tečky na mapě představují dostupné meteorologické stanice.

Když kurzor umístíte na tečku, zobrazí se název stanice.

Pak kliknutím zobrazíte stav a předpověď počasí.

Chcete-li změnit mapu, kliknutím na zelené tlačítko se znaménkem +mapu přiblížíte, kliknutím na zelené tlačítko se znaménkem – mapu oddálíte a kliknutím na zelené šipky přejdete na sousední mapy.


METAR-TAF: